sensor_id;sensor_type;location;lat;lon;timestamp;pressure;altitude;pressure_sealevel;temperature;humidity
36502;BME280;25393;46.108;3.390;2022-12-17T00:02:17;98174.81;;;-3.90;88.18
36502;BME280;25393;46.108;3.390;2022-12-17T00:05:02;98171.50;;;-3.92;88.44
36502;BME280;25393;46.108;3.390;2022-12-17T00:08:04;98165.78;;;-3.98;88.17
36502;BME280;25393;46.108;3.390;2022-12-17T00:10:49;98171.94;;;-3.84;87.85
36502;BME280;25393;46.108;3.390;2022-12-17T00:13:56;98179.72;;;-3.84;89.97
36502;BME280;25393;46.108;3.390;2022-12-17T00:16:41;98172.84;;;-3.85;88.80
36502;BME280;25393;46.108;3.390;2022-12-17T00:19:27;98180.00;;;-3.90;88.40
36502;BME280;25393;46.108;3.390;2022-12-17T00:22:12;98178.19;;;-3.88;87.38
36502;BME280;25393;46.108;3.390;2022-12-17T00:24:57;98175.28;;;-3.99;87.23
36502;BME280;25393;46.108;3.390;2022-12-17T00:27:42;98178.31;;;-4.08;88.23
36502;BME280;25393;46.108;3.390;2022-12-17T00:30:27;98184.28;;;-4.23;88.27
36502;BME280;25393;46.108;3.390;2022-12-17T00:33:12;98180.69;;;-4.21;89.98
36502;BME280;25393;46.108;3.390;2022-12-17T00:35:57;98185.34;;;-4.10;91.78
36502;BME280;25393;46.108;3.390;2022-12-17T00:38:44;98186.56;;;-4.00;90.88
36502;BME280;25393;46.108;3.390;2022-12-17T00:41:43;98186.56;;;-4.00;87.77
36502;BME280;25393;46.108;3.390;2022-12-17T00:44:28;98180.84;;;-4.07;88.62
36502;BME280;25393;46.108;3.390;2022-12-17T00:47:13;98176.66;;;-4.09;88.95
36502;BME280;25393;46.108;3.390;2022-12-17T00:49:57;98174.91;;;-4.09;88.83
36502;BME280;25393;46.108;3.390;2022-12-17T00:52:42;98178.63;;;-4.14;87.84
36502;BME280;25393;46.108;3.390;2022-12-17T00:55:27;98170.88;;;-4.14;86.80
36502;BME280;25393;46.108;3.390;2022-12-17T00:58:12;98183.13;;;-4.18;86.26
36502;BME280;25393;46.108;3.390;2022-12-17T01:00:58;98181.91;;;-4.28;85.83
36502;BME280;25393;46.108;3.390;2022-12-17T01:03:45;98183.19;;;-4.36;85.71
36502;BME280;25393;46.108;3.390;2022-12-17T01:06:30;98183.88;;;-4.33;86.83
36502;BME280;25393;46.108;3.390;2022-12-17T01:09:15;98177.09;;;-4.18;86.94
36502;BME280;25393;46.108;3.390;2022-12-17T01:12:02;98177.72;;;-4.30;87.23
36502;BME280;25393;46.108;3.390;2022-12-17T01:14:47;98180.44;;;-4.33;89.21
36502;BME280;25393;46.108;3.390;2022-12-17T01:17:32;98154.72;;;-4.36;89.40
36502;BME280;25393;46.108;3.390;2022-12-17T01:20:21;98178.94;;;-4.20;88.56
36502;BME280;25393;46.108;3.390;2022-12-17T01:23:07;98180.47;;;-4.16;89.20
36502;BME280;25393;46.108;3.390;2022-12-17T01:25:56;98188.84;;;-4.11;89.24
36502;BME280;25393;46.108;3.390;2022-12-17T01:28:42;98190.69;;;-4.13;88.29
36502;BME280;25393;46.108;3.390;2022-12-17T01:31:27;98181.31;;;-4.16;86.51
36502;BME280;25393;46.108;3.390;2022-12-17T01:34:13;98185.72;;;-4.18;85.42
36502;BME280;25393;46.108;3.390;2022-12-17T01:37:00;98184.34;;;-4.25;85.88
36502;BME280;25393;46.108;3.390;2022-12-17T01:39:46;98194.78;;;-4.26;85.23
36502;BME280;25393;46.108;3.390;2022-12-17T01:42:43;98183.94;;;-4.34;85.74
36502;BME280;25393;46.108;3.390;2022-12-17T01:45:40;98197.94;;;-4.38;86.43
36502;BME280;25393;46.108;3.390;2022-12-17T01:48:35;98193.47;;;-4.54;87.46
36502;BME280;25393;46.108;3.390;2022-12-17T01:51:23;98208.81;;;-4.49;88.74
36502;BME280;25393;46.108;3.390;2022-12-17T01:54:08;98211.66;;;-4.36;89.50
36502;BME280;25393;46.108;3.390;2022-12-17T01:56:56;98219.66;;;-4.24;89.58
36502;BME280;25393;46.108;3.390;2022-12-17T02:02:27;98204.91;;;-4.05;90.61
36502;BME280;25393;46.108;3.390;2022-12-17T02:05:12;98205.00;;;-4.06;91.85
36502;BME280;25393;46.108;3.390;2022-12-17T02:08:10;98206.69;;;-4.05;93.33
36502;BME280;25393;46.108;3.390;2022-12-17T02:11:14;98206.22;;;-3.96;95.46
36502;BME280;25393;46.108;3.390;2022-12-17T02:14:12;98208.13;;;-3.82;98.00
36502;BME280;25393;46.108;3.390;2022-12-17T02:17:05;98220.63;;;-3.73;100.00
36502;BME280;25393;46.108;3.390;2022-12-17T02:26:07;98240.88;;;-3.47;100.00
36502;BME280;25393;46.108;3.390;2022-12-17T02:28:57;98246.13;;;-3.31;100.00
36502;BME280;25393;46.108;3.390;2022-12-17T02:31:45;98241.41;;;-3.40;100.00
36502;BME280;25393;46.108;3.390;2022-12-17T02:34:41;98249.13;;;-3.39;100.00
36502;BME280;25393;46.108;3.390;2022-12-17T02:37:26;98247.38;;;-3.38;100.00
36502;BME280;25393;46.108;3.390;2022-12-17T02:40:12;98244.97;;;-3.26;100.00
36502;BME280;25393;46.108;3.390;2022-12-17T02:42:57;98224.75;;;-3.19;100.00
36502;BME280;25393;46.108;3.390;2022-12-17T02:45:42;98225.94;;;-3.09;100.00
36502;BME280;25393;46.108;3.390;2022-12-17T02:48:40;98225.38;;;-2.98;100.00
36502;BME280;25393;46.108;3.390;2022-12-17T02:51:27;98235.75;;;-2.98;100.00
36502;BME280;25393;46.108;3.390;2022-12-17T02:54:12;98233.44;;;-2.87;100.00
36502;BME280;25393;46.108;3.390;2022-12-17T02:56:57;98227.09;;;-2.82;100.00
36502;BME280;25393;46.108;3.390;2022-12-17T02:59:42;98233.06;;;-2.64;100.00
36502;BME280;25393;46.108;3.390;2022-12-17T03:02:27;98238.47;;;-2.69;100.00
36502;BME280;25393;46.108;3.390;2022-12-17T03:05:12;98245.44;;;-2.69;100.00
36502;BME280;25393;46.108;3.390;2022-12-17T03:08:13;98236.06;;;-2.56;100.00
36502;BME280;25393;46.108;3.390;2022-12-17T03:10:58;98249.06;;;-2.40;100.00
36502;BME280;25393;46.108;3.390;2022-12-17T03:13:44;98232.38;;;-2.36;100.00
36502;BME280;25393;46.108;3.390;2022-12-17T03:16:29;98226.03;;;-2.46;100.00
36502;BME280;25393;46.108;3.390;2022-12-17T03:19:15;98226.44;;;-2.54;100.00
36502;BME280;25393;46.108;3.390;2022-12-17T03:22:04;98242.19;;;-2.57;100.00
36502;BME280;25393;46.108;3.390;2022-12-17T03:24:49;98230.69;;;-2.53;100.00
36502;BME280;25393;46.108;3.390;2022-12-17T03:27:34;98249.69;;;-2.53;100.00
36502;BME280;25393;46.108;3.390;2022-12-17T03:30:19;98240.69;;;-2.61;100.00
36502;BME280;25393;46.108;3.390;2022-12-17T03:33:07;98235.06;;;-2.54;100.00
36502;BME280;25393;46.108;3.390;2022-12-17T03:35:53;98257.41;;;-2.51;100.00
36502;BME280;25393;46.108;3.390;2022-12-17T03:38:38;98244.84;;;-2.59;100.00
36502;BME280;25393;46.108;3.390;2022-12-17T03:41:23;98253.97;;;-2.52;100.00
36502;BME280;25393;46.108;3.390;2022-12-17T03:44:08;98250.97;;;-2.44;100.00
36502;BME280;25393;46.108;3.390;2022-12-17T03:46:53;98253.31;;;-2.39;100.00
36502;BME280;25393;46.108;3.390;2022-12-17T03:49:38;98259.69;;;-2.29;100.00
36502;BME280;25393;46.108;3.390;2022-12-17T03:52:23;98252.06;;;-2.32;100.00
36502;BME280;25393;46.108;3.390;2022-12-17T03:55:08;98271.59;;;-2.25;100.00
36502;BME280;25393;46.108;3.390;2022-12-17T03:57:52;98265.88;;;-2.16;100.00
36502;BME280;25393;46.108;3.390;2022-12-17T04:00:38;98272.09;;;-2.19;100.00
36502;BME280;25393;46.108;3.390;2022-12-17T04:03:22;98276.88;;;-2.11;100.00
36502;BME280;25393;46.108;3.390;2022-12-17T04:06:07;98266.78;;;-2.17;100.00
36502;BME280;25393;46.108;3.390;2022-12-17T04:08:53;98263.03;;;-2.27;100.00
36502;BME280;25393;46.108;3.390;2022-12-17T04:11:38;98260.25;;;-2.24;100.00
36502;BME280;25393;46.108;3.390;2022-12-17T04:14:23;98272.47;;;-2.11;100.00
36502;BME280;25393;46.108;3.390;2022-12-17T04:17:08;98273.16;;;-2.07;100.00
36502;BME280;25393;46.108;3.390;2022-12-17T04:19:53;98277.19;;;-2.17;100.00
36502;BME280;25393;46.108;3.390;2022-12-17T04:22:38;98269.50;;;-2.19;100.00
36502;BME280;25393;46.108;3.390;2022-12-17T04:25:23;98272.16;;;-2.05;100.00
36502;BME280;25393;46.108;3.390;2022-12-17T04:28:08;98280.13;;;-2.08;100.00
36502;BME280;25393;46.108;3.390;2022-12-17T04:30:53;98264.44;;;-2.06;100.00
36502;BME280;25393;46.108;3.390;2022-12-17T04:33:37;98266.63;;;-1.98;100.00
36502;BME280;25393;46.108;3.390;2022-12-17T04:36:22;98265.34;;;-1.91;100.00
36502;BME280;25393;46.108;3.390;2022-12-17T04:39:08;98268.50;;;-1.86;100.00
36502;BME280;25393;46.108;3.390;2022-12-17T04:41:52;98263.41;;;-1.88;100.00
36502;BME280;25393;46.108;3.390;2022-12-17T04:44:37;98270.63;;;-1.93;100.00
36502;BME280;25393;46.108;3.390;2022-12-17T04:47:22;98263.25;;;-2.01;100.00
36502;BME280;25393;46.108;3.390;2022-12-17T04:50:07;98262.84;;;-2.09;100.00
36502;BME280;25393;46.108;3.390;2022-12-17T04:53:00;98286.97;;;-2.07;100.00
36502;BME280;25393;46.108;3.390;2022-12-17T04:55:46;98287.06;;;-2.08;100.00
36502;BME280;25393;46.108;3.390;2022-12-17T04:58:33;98283.97;;;-1.99;100.00
36502;BME280;25393;46.108;3.390;2022-12-17T05:01:18;98285.28;;;-1.92;100.00
36502;BME280;25393;46.108;3.390;2022-12-17T05:04:03;98287.16;;;-1.94;100.00
36502;BME280;25393;46.108;3.390;2022-12-17T05:06:48;98288.91;;;-1.94;100.00
36502;BME280;25393;46.108;3.390;2022-12-17T05:09:33;98295.00;;;-1.95;100.00
36502;BME280;25393;46.108;3.390;2022-12-17T05:12:18;98303.72;;;-1.96;100.00
36502;BME280;25393;46.108;3.390;2022-12-17T05:15:03;98299.53;;;-1.99;100.00
36502;BME280;25393;46.108;3.390;2022-12-17T05:17:48;98300.81;;;-1.90;100.00
36502;BME280;25393;46.108;3.390;2022-12-17T05:20:33;98298.94;;;-1.73;100.00
36502;BME280;25393;46.108;3.390;2022-12-17T05:23:18;98286.69;;;-1.71;100.00
36502;BME280;25393;46.108;3.390;2022-12-17T05:26:18;98293.88;;;-1.60;100.00
36502;BME280;25393;46.108;3.390;2022-12-17T05:29:04;98292.31;;;-1.78;100.00
36502;BME280;25393;46.108;3.390;2022-12-17T05:31:49;98281.34;;;-1.83;100.00
36502;BME280;25393;46.108;3.390;2022-12-17T05:34:35;98288.00;;;-1.64;100.00
36502;BME280;25393;46.108;3.390;2022-12-17T05:37:23;98291.34;;;-1.62;100.00
36502;BME280;25393;46.108;3.390;2022-12-17T05:40:09;98276.75;;;-1.94;100.00
36502;BME280;25393;46.108;3.390;2022-12-17T05:43:03;98292.84;;;-2.03;100.00
36502;BME280;25393;46.108;3.390;2022-12-17T05:45:49;98297.97;;;-2.02;100.00
36502;BME280;25393;46.108;3.390;2022-12-17T05:48:34;98298.81;;;-2.01;100.00
36502;BME280;25393;46.108;3.390;2022-12-17T05:51:21;98305.41;;;-1.95;100.00
36502;BME280;25393;46.108;3.390;2022-12-17T05:54:07;98307.47;;;-1.86;100.00
36502;BME280;25393;46.108;3.390;2022-12-17T05:56:52;98312.34;;;-1.80;100.00
36502;BME280;25393;46.108;3.390;2022-12-17T05:59:37;98309.09;;;-1.84;100.00
36502;BME280;25393;46.108;3.390;2022-12-17T06:02:22;98309.47;;;-1.76;100.00
36502;BME280;25393;46.108;3.390;2022-12-17T06:05:08;98321.31;;;-1.86;100.00
36502;BME280;25393;46.108;3.390;2022-12-17T06:08:04;98321.91;;;-1.81;100.00
36502;BME280;25393;46.108;3.390;2022-12-17T06:10:50;98309.94;;;-1.83;100.00
36502;BME280;25393;46.108;3.390;2022-12-17T06:13:35;98317.56;;;-1.96;100.00
36502;BME280;25393;46.108;3.390;2022-12-17T06:16:20;98317.06;;;-1.87;100.00
36502;BME280;25393;46.108;3.390;2022-12-17T06:19:05;98322.84;;;-1.97;100.00
36502;BME280;25393;46.108;3.390;2022-12-17T06:21:50;98324.78;;;-2.17;100.00
36502;BME280;25393;46.108;3.390;2022-12-17T06:24:36;98326.53;;;-2.17;100.00
36502;BME280;25393;46.108;3.390;2022-12-17T06:27:20;98319.91;;;-2.23;100.00
36502;BME280;25393;46.108;3.390;2022-12-17T06:30:05;98330.81;;;-2.16;100.00
36502;BME280;25393;46.108;3.390;2022-12-17T06:32:51;98335.97;;;-2.32;100.00
36502;BME280;25393;46.108;3.390;2022-12-17T06:35:36;98333.72;;;-2.54;100.00
36502;BME280;25393;46.108;3.390;2022-12-17T06:38:21;98343.25;;;-2.38;100.00
36502;BME280;25393;46.108;3.390;2022-12-17T06:41:05;98345.28;;;-2.28;100.00
36502;BME280;25393;46.108;3.390;2022-12-17T06:43:50;98345.56;;;-2.32;100.00
36502;BME280;25393;46.108;3.390;2022-12-17T06:46:36;98344.94;;;-2.37;100.00
36502;BME280;25393;46.108;3.390;2022-12-17T06:49:21;98345.56;;;-2.32;100.00
36502;BME280;25393;46.108;3.390;2022-12-17T06:52:06;98347.31;;;-2.17;100.00
36502;BME280;25393;46.108;3.390;2022-12-17T06:54:51;98352.31;;;-2.14;100.00
36502;BME280;25393;46.108;3.390;2022-12-17T06:57:36;98356.19;;;-2.37;100.00
36502;BME280;25393;46.108;3.390;2022-12-17T07:00:22;98342.06;;;-2.48;100.00
36502;BME280;25393;46.108;3.390;2022-12-17T07:03:10;98354.09;;;-2.30;100.00
36502;BME280;25393;46.108;3.390;2022-12-17T07:05:59;98347.03;;;-2.28;100.00
36502;BME280;25393;46.108;3.390;2022-12-17T07:08:45;98332.13;;;-2.25;100.00
36502;BME280;25393;46.108;3.390;2022-12-17T07:11:32;98341.59;;;-2.24;100.00
36502;BME280;25393;46.108;3.390;2022-12-17T07:14:17;98339.91;;;-2.40;100.00
36502;BME280;25393;46.108;3.390;2022-12-17T07:17:02;98341.16;;;-2.32;100.00
36502;BME280;25393;46.108;3.390;2022-12-17T07:19:47;98347.19;;;-2.47;100.00
36502;BME280;25393;46.108;3.390;2022-12-17T07:22:32;98345.84;;;-2.38;100.00
36502;BME280;25393;46.108;3.390;2022-12-17T07:25:17;98347.13;;;-2.30;100.00
36502;BME280;25393;46.108;3.390;2022-12-17T07:28:08;98345.19;;;-2.42;100.00
36502;BME280;25393;46.108;3.390;2022-12-17T07:30:55;98354.22;;;-2.49;100.00
36502;BME280;25393;46.108;3.390;2022-12-17T07:33:40;98356.19;;;-2.70;100.00
36502;BME280;25393;46.108;3.390;2022-12-17T07:36:26;98367.06;;;-2.63;100.00
36502;BME280;25393;46.108;3.390;2022-12-17T07:39:11;98382.69;;;-2.47;100.00
36502;BME280;25393;46.108;3.390;2022-12-17T07:41:58;98386.03;;;-2.45;100.00
36502;BME280;25393;46.108;3.390;2022-12-17T07:44:48;98392.47;;;-2.53;100.00
36502;BME280;25393;46.108;3.390;2022-12-17T07:47:32;98393.94;;;-2.47;100.00
36502;BME280;25393;46.108;3.390;2022-12-17T07:50:17;98396.53;;;-2.47;100.00
36502;BME280;25393;46.108;3.390;2022-12-17T07:53:05;98394.59;;;-2.43;100.00
36502;BME280;25393;46.108;3.390;2022-12-17T07:55:50;98394.31;;;-2.22;100.00
36502;BME280;25393;46.108;3.390;2022-12-17T07:58:36;98386.75;;;-2.11;100.00
36502;BME280;25393;46.108;3.390;2022-12-17T08:01:20;98393.41;;;-2.05;100.00
36502;BME280;25393;46.108;3.390;2022-12-17T08:04:06;98392.81;;;-2.10;100.00
36502;BME280;25393;46.108;3.390;2022-12-17T08:06:51;98395.63;;;-2.30;100.00
36502;BME280;25393;46.108;3.390;2022-12-17T08:09:39;98403.47;;;-2.47;100.00
36502;BME280;25393;46.108;3.390;2022-12-17T08:12:24;98411.31;;;-2.49;100.00
36502;BME280;25393;46.108;3.390;2022-12-17T08:15:10;98409.44;;;-2.63;100.00
36502;BME280;25393;46.108;3.390;2022-12-17T08:18:00;98411.59;;;-2.54;100.00
36502;BME280;25393;46.108;3.390;2022-12-17T08:20:52;98404.38;;;-2.48;100.00
36502;BME280;25393;46.108;3.390;2022-12-17T08:23:37;98414.63;;;-2.63;100.00
36502;BME280;25393;46.108;3.390;2022-12-17T08:26:22;98414.78;;;-2.66;100.00
36502;BME280;25393;46.108;3.390;2022-12-17T08:29:13;98424.56;;;-2.54;100.00
36502;BME280;25393;46.108;3.390;2022-12-17T08:31:58;98429.47;;;-2.32;100.00
36502;BME280;25393;46.108;3.390;2022-12-17T08:34:43;98441.69;;;-2.34;100.00
36502;BME280;25393;46.108;3.390;2022-12-17T08:37:29;98454.00;;;-2.37;100.00
36502;BME280;25393;46.108;3.390;2022-12-17T08:40:34;98456.97;;;-2.45;100.00
36502;BME280;25393;46.108;3.390;2022-12-17T08:43:19;98462.09;;;-2.43;100.00
36502;BME280;25393;46.108;3.390;2022-12-17T08:46:05;98459.50;;;-2.43;100.00
36502;BME280;25393;46.108;3.390;2022-12-17T08:48:50;98463.41;;;-2.52;100.00
36502;BME280;25393;46.108;3.390;2022-12-17T08:51:35;98466.13;;;-2.38;100.00
36502;BME280;25393;46.108;3.390;2022-12-17T08:54:20;98469.38;;;-2.17;100.00
36502;BME280;25393;46.108;3.390;2022-12-17T08:57:05;98459.84;;;-2.17;100.00
36502;BME280;25393;46.108;3.390;2022-12-17T08:59:57;98469.44;;;-2.02;100.00
36502;BME280;25393;46.108;3.390;2022-12-17T09:02:43;98464.06;;;-1.98;100.00
36502;BME280;25393;46.108;3.390;2022-12-17T09:05:29;98473.16;;;-2.07;100.00
36502;BME280;25393;46.108;3.390;2022-12-17T09:08:14;98484.56;;;-2.10;100.00
36502;BME280;25393;46.108;3.390;2022-12-17T09:11:00;98469.41;;;-2.34;100.00
36502;BME280;25393;46.108;3.390;2022-12-17T09:13:45;98474.53;;;-2.33;100.00
36502;BME280;25393;46.108;3.390;2022-12-17T09:16:34;98490.34;;;-2.37;100.00
36502;BME280;25393;46.108;3.390;2022-12-17T09:19:19;98489.66;;;-2.41;100.00
36502;BME280;25393;46.108;3.390;2022-12-17T09:22:05;98488.63;;;-2.21;100.00
36502;BME280;25393;46.108;3.390;2022-12-17T09:24:50;98500.66;;;-2.19;100.00
36502;BME280;25393;46.108;3.390;2022-12-17T09:27:36;98501.84;;;-2.09;100.00
36502;BME280;25393;46.108;3.390;2022-12-17T09:30:21;98498.47;;;-2.11;100.00
36502;BME280;25393;46.108;3.390;2022-12-17T09:33:06;98502.44;;;-2.04;100.00
36502;BME280;25393;46.108;3.390;2022-12-17T09:35:51;98510.84;;;-1.98;100.00
36502;BME280;25393;46.108;3.390;2022-12-17T09:38:36;98515.50;;;-2.05;100.00
36502;BME280;25393;46.108;3.390;2022-12-17T09:41:27;98511.06;;;-2.03;100.00
36502;BME280;25393;46.108;3.390;2022-12-17T09:44:50;98504.16;;;-1.87;100.00
36502;BME280;25393;46.108;3.390;2022-12-17T09:50:25;98502.25;;;-2.01;100.00
36502;BME280;25393;46.108;3.390;2022-12-17T09:53:20;98512.41;;;-1.96;100.00
36502;BME280;25393;46.108;3.390;2022-12-17T09:56:09;98503.66;;;-1.78;100.00
36502;BME280;25393;46.108;3.390;2022-12-17T09:58:57;98495.72;;;-1.59;100.00
36502;BME280;25393;46.108;3.390;2022-12-17T10:01:42;98493.53;;;-1.67;100.00
36502;BME280;25393;46.108;3.390;2022-12-17T10:04:33;98489.41;;;-1.71;100.00
36502;BME280;25393;46.108;3.390;2022-12-17T10:07:24;98488.50;;;-1.70;100.00
36502;BME280;25393;46.108;3.390;2022-12-17T10:12:59;98499.91;;;-1.57;100.00
36502;BME280;25393;46.108;3.390;2022-12-17T10:15:43;98505.75;;;-1.69;100.00
36502;BME280;25393;46.108;3.390;2022-12-17T10:18:33;98486.88;;;-1.72;100.00
36502;BME280;25393;46.108;3.390;2022-12-17T10:21:22;98501.44;;;-1.53;100.00
36502;BME280;25393;46.108;3.390;2022-12-17T10:24:09;98496.66;;;-1.60;100.00
36502;BME280;25393;46.108;3.390;2022-12-17T10:26:55;98491.47;;;-1.44;100.00
36502;BME280;25393;46.108;3.390;2022-12-17T10:29:42;98489.44;;;-1.39;100.00
36502;BME280;25393;46.108;3.390;2022-12-17T10:32:33;98490.78;;;-1.32;100.00
36502;BME280;25393;46.108;3.390;2022-12-17T10:35:26;98495.38;;;-1.22;100.00
36502;BME280;25393;46.108;3.390;2022-12-17T10:38:23;98500.41;;;-1.19;100.00
36502;BME280;25393;46.108;3.390;2022-12-17T10:44:43;98497.03;;;-0.89;100.00
36502;BME280;25393;46.108;3.390;2022-12-17T10:47:34;98488.34;;;-0.74;96.50
36502;BME280;25393;46.108;3.390;2022-12-17T10:50:22;98483.28;;;-0.77;97.65
36502;BME280;25393;46.108;3.390;2022-12-17T10:53:19;98490.91;;;-0.88;96.81
36502;BME280;25393;46.108;3.390;2022-12-17T10:56:05;98483.78;;;-1.01;99.38
36502;BME280;25393;46.108;3.390;2022-12-17T10:58:52;98480.34;;;-1.01;99.70
36502;BME280;25393;46.108;3.390;2022-12-17T11:01:39;98488.13;;;-0.85;98.74
36502;BME280;25393;46.108;3.390;2022-12-17T11:07:57;98483.25;;;-0.91;96.62
36502;BME280;25393;46.108;3.390;2022-12-17T11:10:24;98472.50;;;-0.85;96.67
36502;BME280;25393;46.108;3.390;2022-12-17T11:13:35;98469.56;;;-0.95;96.12
36502;BME280;25393;46.108;3.390;2022-12-17T11:16:26;98464.81;;;-1.03;96.10
36502;BME280;25393;46.108;3.390;2022-12-17T11:19:27;98474.38;;;-1.03;95.86
36502;BME280;25393;46.108;3.390;2022-12-17T11:22:22;98458.47;;;-1.13;99.07
36502;BME280;25393;46.108;3.390;2022-12-17T11:28:37;98476.44;;;-0.78;100.00
36502;BME280;25393;46.108;3.390;2022-12-17T11:34:53;98479.44;;;-0.26;96.85
36502;BME280;25393;46.108;3.390;2022-12-17T11:41:14;98478.34;;;-0.08;92.40
36502;BME280;25393;46.108;3.390;2022-12-17T11:47:30;98479.44;;;-0.12;93.00
36502;BME280;25393;46.108;3.390;2022-12-17T11:50:30;98480.94;;;-0.08;94.00
36502;BME280;25393;46.108;3.390;2022-12-17T11:53:45;98476.66;;;-0.09;93.64
36502;BME280;25393;46.108;3.390;2022-12-17T11:56:41;98475.44;;;0.11;91.53
36502;BME280;25393;46.108;3.390;2022-12-17T11:59:33;98483.91;;;0.14;87.67
36502;BME280;25393;46.108;3.390;2022-12-17T12:08:37;98496.09;;;0.56;88.84
36502;BME280;25393;46.108;3.390;2022-12-17T12:11:43;98492.34;;;0.46;89.15
36502;BME280;25393;46.108;3.390;2022-12-17T12:27:06;98467.22;;;0.45;88.47
36502;BME280;25393;46.108;3.390;2022-12-17T12:30:10;98463.09;;;0.55;88.32
36502;BME280;25393;46.108;3.390;2022-12-17T12:33:22;98470.16;;;0.94;85.46
36502;BME280;25393;46.108;3.390;2022-12-17T12:36:11;98466.31;;;0.99;83.99
36502;BME280;25393;46.108;3.390;2022-12-17T12:38:59;98473.50;;;0.96;84.37
36502;BME280;25393;46.108;3.390;2022-12-17T12:41:58;98464.13;;;1.06;82.64
36502;BME280;25393;46.108;3.390;2022-12-17T12:45:14;98465.19;;;1.04;82.41
36502;BME280;25393;46.108;3.390;2022-12-17T12:51:19;98458.78;;;1.22;82.18
36502;BME280;25393;46.108;3.390;2022-12-17T12:57:30;98464.00;;;1.34;80.77
36502;BME280;25393;46.108;3.390;2022-12-17T13:03:34;98467.94;;;1.15;82.96
36502;BME280;25393;46.108;3.390;2022-12-17T13:06:41;98464.63;;;1.25;83.65
36502;BME280;25393;46.108;3.390;2022-12-17T13:11:45;98443.53;;;1.41;83.44
36502;BME280;25393;46.108;3.390;2022-12-17T13:14:29;98441.16;;;1.63;83.49
36502;BME280;25393;46.108;3.390;2022-12-17T13:19:44;98426.94;;;1.80;79.00
36502;BME280;25393;46.108;3.390;2022-12-17T13:24:51;98432.06;;;1.43;82.07
36502;BME280;25393;46.108;3.390;2022-12-17T13:41:19;98407.69;;;1.30;81.64
36502;BME280;25393;46.108;3.390;2022-12-17T13:43:52;98391.28;;;1.41;81.69
36502;BME280;25393;46.108;3.390;2022-12-17T13:46:27;98389.84;;;1.37;80.27
36502;BME280;25393;46.108;3.390;2022-12-17T13:49:00;98380.53;;;1.45;80.43
36502;BME280;25393;46.108;3.390;2022-12-17T13:51:30;98375.84;;;1.50;79.18
36502;BME280;25393;46.108;3.390;2022-12-17T13:54:15;98366.66;;;1.32;80.45
36502;BME280;25393;46.108;3.390;2022-12-17T13:56:44;98367.47;;;1.33;79.89
36502;BME280;25393;46.108;3.390;2022-12-17T13:59:19;98360.97;;;1.13;80.51
36502;BME280;25393;46.108;3.390;2022-12-17T14:01:48;98356.38;;;1.17;79.72
36502;BME280;25393;46.108;3.390;2022-12-17T14:04:29;98361.72;;;1.15;81.20
36502;BME280;25393;46.108;3.390;2022-12-17T14:07:01;98364.22;;;1.17;81.87
36502;BME280;25393;46.108;3.390;2022-12-17T14:09:38;98366.09;;;1.15;85.34
36502;BME280;25393;46.108;3.390;2022-12-17T14:12:06;98370.47;;;1.14;85.74
36502;BME280;25393;46.108;3.390;2022-12-17T14:15:00;98373.59;;;1.07;83.48
36502;BME280;25393;46.108;3.390;2022-12-17T14:17:50;98372.47;;;1.11;82.25
36502;BME280;25393;46.108;3.390;2022-12-17T14:20:22;98377.34;;;1.02;82.89
36502;BME280;25393;46.108;3.390;2022-12-17T14:23:05;98366.91;;;1.02;83.89
36502;BME280;25393;46.108;3.390;2022-12-17T14:25:38;98360.66;;;1.05;84.37
36502;BME280;25393;46.108;3.390;2022-12-17T14:28:20;98362.44;;;1.17;83.85
36502;BME280;25393;46.108;3.390;2022-12-17T14:30:47;98365.06;;;1.17;83.04
36502;BME280;25393;46.108;3.390;2022-12-17T14:33:38;98371.03;;;1.19;83.05
36502;BME280;25393;46.108;3.390;2022-12-17T14:36:19;98375.19;;;1.22;83.71
36502;BME280;25393;46.108;3.390;2022-12-17T14:38:57;98377.59;;;1.25;82.23
36502;BME280;25393;46.108;3.390;2022-12-17T14:41:26;98371.25;;;1.29;82.35
36502;BME280;25393;46.108;3.390;2022-12-17T14:44:20;98376.66;;;1.38;83.09
36502;BME280;25393;46.108;3.390;2022-12-17T14:46:47;98366.00;;;1.41;83.34
36502;BME280;25393;46.108;3.390;2022-12-17T14:49:17;98353.25;;;1.62;81.59
36502;BME280;25393;46.108;3.390;2022-12-17T14:51:47;98332.38;;;1.49;81.58
36502;BME280;25393;46.108;3.390;2022-12-17T14:54:25;98345.75;;;1.58;82.00
36502;BME280;25393;46.108;3.390;2022-12-17T14:56:58;98340.63;;;1.56;82.38
36502;BME280;25393;46.108;3.390;2022-12-17T14:59:35;98331.44;;;1.50;81.67
36502;BME280;25393;46.108;3.390;2022-12-17T15:02:24;98322.34;;;1.18;82.40
36502;BME280;25393;46.108;3.390;2022-12-17T15:04:57;98331.19;;;1.03;82.95
36502;BME280;25393;46.108;3.390;2022-12-17T15:07:29;98344.19;;;0.78;84.40
36502;BME280;25393;46.108;3.390;2022-12-17T15:09:58;98361.31;;;0.69;85.89
36502;BME280;25393;46.108;3.390;2022-12-17T15:12:26;98371.44;;;0.47;87.96
36502;BME280;25393;46.108;3.390;2022-12-17T15:15:10;98366.72;;;0.39;89.30
36502;BME280;25393;46.108;3.390;2022-12-17T15:17:42;98375.81;;;0.46;89.10
36502;BME280;25393;46.108;3.390;2022-12-17T15:20:20;98365.78;;;0.40;89.70
36502;BME280;25393;46.108;3.390;2022-12-17T15:22:59;98338.66;;;0.16;90.53
36502;BME280;25393;46.108;3.390;2022-12-17T15:26:23;98387.44;;;0.55;89.56
36502;BME280;25393;46.108;3.390;2022-12-17T15:28:50;98383.19;;;0.40;90.70
36502;BME280;25393;46.108;3.390;2022-12-17T15:31:17;98398.53;;;0.18;91.42
36502;BME280;25393;46.108;3.390;2022-12-17T15:33:50;98390.44;;;0.08;93.82
36502;BME280;25393;46.108;3.390;2022-12-17T15:36:16;98396.09;;;0.15;94.40
36502;BME280;25393;46.108;3.390;2022-12-17T15:38:43;98388.59;;;0.10;93.60
36502;BME280;25393;46.108;3.390;2022-12-17T15:41:09;98392.66;;;0.14;94.21
36502;BME280;25393;46.108;3.390;2022-12-17T15:43:54;98393.06;;;-0.06;95.78
36502;BME280;25393;46.108;3.390;2022-12-17T15:46:21;98386.75;;;-0.16;96.58
36502;BME280;25393;46.108;3.390;2022-12-17T15:48:48;98390.47;;;-0.20;97.68
36502;BME280;25393;46.108;3.390;2022-12-17T15:51:16;98401.28;;;-0.12;98.90
36502;BME280;25393;46.108;3.390;2022-12-17T15:53:45;98395.97;;;-0.11;99.96
36502;BME280;25393;46.108;3.390;2022-12-17T15:56:21;98384.13;;;-0.02;98.09
36502;BME280;25393;46.108;3.390;2022-12-17T15:58:49;98398.75;;;-0.14;99.15
36502;BME280;25393;46.108;3.390;2022-12-17T16:01:16;98405.91;;;-0.31;100.00